Time;durP1;ratioP1;P1;durP2;ratioP2;P2;SDS_P1;SDS_P2;PMS_P1;PMS_P2;Temp;Humidity;BMP_temperature;BMP_pressure;BME280_temperature;BME280_humidity;BME280_pressure;Samples;Min_cycle;Max_cycle;Signal;HPM_P1;HPM_P2
2022/12/09 00:00:27;;;;;;;49.83;12.48;;;;;;;0.01;0.00;59042.03;5037204;28;20110;-53
2022/12/09 00:02:53;;;;;;;44.85;11.85;;;;;;;0.01;0.00;59042.03;5037066;28;20032;-54
2022/12/09 00:05:18;;;;;;;37.55;12.27;;;;;;;0.01;0.00;59042.03;5037530;28;20577;-54
2022/12/09 00:07:43;;;;;;;43.80;12.75;;;;;;;0.01;0.00;59042.03;5037925;28;20046;-53
2022/12/09 00:10:09;;;;;;;46.65;13.15;;;;;;;0.01;0.00;59042.03;5037008;28;20025;-53
2022/12/09 00:12:34;;;;;;;46.38;13.32;;;;;;;0.01;0.00;59042.03;5037707;28;20044;-54
2022/12/09 00:15:00;;;;;;;49.25;13.20;;;;;;;0.01;0.00;59042.03;5036805;28;20033;-54
2022/12/09 00:17:25;;;;;;;42.67;12.35;;;;;;;0.01;0.00;59042.03;5037245;28;20113;-54
2022/12/09 00:19:50;;;;;;;44.78;12.68;;;;;;;0.01;0.00;59042.03;5038023;28;20037;-54
2022/12/09 00:22:16;;;;;;;43.58;12.45;;;;;;;0.01;0.00;59042.03;5036710;28;20390;-55
2022/12/09 00:24:41;;;;;;;47.55;12.57;;;;;;;0.01;0.00;59042.03;5037975;28;20163;-54
2022/12/09 00:27:07;;;;;;;48.72;12.70;;;;;;;0.01;0.00;59042.03;5036780;28;20032;-53
2022/12/09 00:29:32;;;;;;;43.15;12.45;;;;;;;0.01;0.00;59042.03;5037914;28;20132;-55
2022/12/09 00:31:57;;;;;;;48.22;13.10;;;;;;;0.01;0.00;59042.03;5036789;28;20037;-56
2022/12/09 00:34:23;;;;;;;50.45;12.27;;;;;;;0.01;0.00;59042.03;5019114;28;20493;-54
2022/12/09 00:36:48;;;;;;;39.80;12.35;;;;;;;0.01;0.00;59042.03;5036742;28;20033;-54
2022/12/09 00:39:14;;;;;;;46.78;12.30;;;;;;;0.01;0.00;59042.03;5036969;28;20490;-54
2022/12/09 00:41:39;;;;;;;46.72;12.43;;;;;;;0.01;0.00;59042.03;5036494;28;20037;-54
2022/12/09 00:44:05;;;;;;;41.55;11.73;;;;;;;0.01;0.00;59042.03;5037543;28;20025;-57
2022/12/09 00:46:30;;;;;;;39.53;11.57;;;;;;;0.01;0.00;59042.03;5036366;28;20048;-53
2022/12/09 00:48:56;;;;;;;37.28;12.43;;;;;;;0.01;0.00;59042.03;5037495;28;20029;-55
2022/12/09 00:51:23;;;;;;;52.58;13.73;;;;;;;0.01;0.00;59042.03;5036479;28;20502;-56
2022/12/09 00:53:53;;;;;;;43.42;12.30;;;;;;;0.01;0.00;59042.03;5037564;28;20056;-53
2022/12/09 00:56:19;;;;;;;45.15;12.05;;;;;;;0.01;0.00;59042.03;5036713;28;20119;-53
2022/12/09 00:58:44;;;;;;;43.92;12.45;;;;;;;0.01;0.00;59042.03;5037219;28;20608;-53
2022/12/09 01:01:13;;;;;;;41.78;11.65;;;;;;;0.01;0.00;59042.03;5036475;28;20049;-54
2022/12/09 01:03:38;;;;;;;40.92;11.63;;;;;;;0.01;0.00;59042.03;5036989;28;20461;-54
2022/12/09 01:06:09;;;;;;;45.60;12.10;;;;;;;0.01;0.00;59042.03;5036658;28;20033;-55
2022/12/09 01:08:35;;;;;;;52.55;13.05;;;;;;;0.01;0.00;59042.03;5037402;28;20083;-54
2022/12/09 01:11:08;;;;;;;46.53;12.50;;;;;;;0.01;0.00;59042.03;5036914;28;20068;-54
2022/12/09 01:13:33;;;;;;;50.10;12.75;;;;;;;0.01;0.00;59042.03;5038327;28;20017;-55
2022/12/09 01:15:59;;;;;;;51.15;12.50;;;;;;;0.01;0.00;59042.03;5040152;28;20037;-55
2022/12/09 01:18:24;;;;;;;44.63;12.35;;;;;;;0.01;0.00;59042.03;5041165;28;20029;-53
2022/12/09 01:20:57;;;;;;;49.70;12.40;;;;;;;0.01;0.00;59042.03;5040054;28;20029;-53
2022/12/09 01:23:23;;;;;;;40.45;11.20;;;;;;;0.01;0.00;59042.03;5040396;28;20432;-54
2022/12/09 01:25:48;;;;;;;47.13;12.90;;;;;;;0.01;0.00;59042.03;5040483;28;20678;-53
2022/12/09 01:28:14;;;;;;;44.03;12.07;;;;;;;0.01;0.00;59042.03;5040831;28;20539;-54
2022/12/09 01:30:39;;;;;;;43.85;11.35;;;;;;;0.01;0.00;59042.03;5039631;28;20675;-54
2022/12/09 01:33:04;;;;;;;42.72;11.82;;;;;;;0.01;0.00;59042.03;5040273;28;20021;-56
2022/12/09 01:35:30;;;;;;;45.47;11.77;;;;;;;0.01;0.00;59042.03;5039994;28;20037;-54
2022/12/09 01:37:55;;;;;;;42.55;11.32;;;;;;;0.01;0.00;59042.03;5040326;28;20043;-53
2022/12/09 01:40:21;;;;;;;40.00;10.82;;;;;;;0.01;0.00;59042.03;5040175;28;20320;-53
2022/12/09 01:42:48;;;;;;;39.38;12.13;;;;;;;0.01;0.00;59042.03;5039939;28;20805;-53
2022/12/09 01:45:29;;;;;;;33.55;10.75;;;;;;;0.01;0.00;59042.03;5039397;28;20025;-53
2022/12/09 01:48:00;;;;;;;48.35;12.88;;;;;;;0.01;0.00;59042.03;5040350;28;20100;-54
2022/12/09 01:50:26;;;;;;;43.28;11.60;;;;;;;0.01;0.00;59042.03;5039619;28;20037;-52
2022/12/09 01:52:52;;;;;;;41.38;12.50;;;;;;;0.01;0.00;59042.03;5039824;28;20090;-54
2022/12/09 01:55:18;;;;;;;35.70;11.57;;;;;;;0.01;0.00;59042.03;5039393;28;20028;-54
2022/12/09 01:57:44;;;;;;;42.80;11.40;;;;;;;0.01;0.00;59042.03;5039688;28;20036;-54
2022/12/09 02:00:11;;;;;;;45.33;11.90;;;;;;;0.01;0.00;59042.03;5039350;28;20025;-56
2022/12/09 02:02:38;;;;;;;36.58;10.82;;;;;;;0.01;0.00;59042.03;5039630;28;20039;-53
2022/12/09 02:05:04;;;;;;;47.75;12.43;;;;;;;0.01;0.00;59042.03;5039722;28;20064;-54
2022/12/09 02:07:30;;;;;;;37.88;11.15;;;;;;;0.01;0.00;59042.03;5039807;28;20731;-52
2022/12/09 02:09:56;;;;;;;37.08;11.27;;;;;;;0.01;0.00;59042.03;5040114;28;20028;-53
2022/12/09 02:12:35;;;;;;;44.78;10.88;;;;;;;0.01;0.00;59042.03;5037942;28;20055;-55
2022/12/09 02:15:11;;;;;;;39.15;11.30;;;;;;;0.01;0.00;59042.03;5039846;28;20116;-53
2022/12/09 02:17:49;;;;;;;43.17;11.82;;;;;;;0.01;0.00;59042.03;5039426;28;20037;-53
2022/12/09 02:20:27;;;;;;;40.35;11.25;;;;;;;0.01;0.00;59042.03;5039013;28;20087;-53
2022/12/09 02:23:12;;;;;;;37.95;11.88;;;;;;;0.01;0.00;59042.03;5039123;28;20208;-53
2022/12/09 02:25:46;;;;;;;38.95;10.77;;;;;;;0.01;0.00;59042.03;5038119;28;20063;-53
2022/12/09 02:28:30;;;;;;;43.60;11.65;;;;;;;0.01;0.00;59042.03;5039278;28;20086;-53
2022/12/09 02:31:14;;;;;;;46.95;11.88;;;;;;;0.01;0.00;59042.03;5038719;28;20659;-56
2022/12/09 02:34:00;;;;;;;41.50;11.48;;;;;;;0.01;0.00;59042.03;5039476;28;20028;-55
2022/12/09 02:36:32;;;;;;;36.67;10.98;;;;;;;0.01;0.00;59042.03;5038785;28;20722;-52
2022/12/09 02:38:59;;;;;;;34.15;9.48;;;;;;;0.01;0.00;59042.03;5039256;28;20032;-55
2022/12/09 02:41:30;;;;;;;39.67;11.85;;;;;;;0.01;0.00;59042.03;5038549;28;20045;-55
2022/12/09 02:44:11;;;;;;;43.55;11.93;;;;;;;0.01;0.00;59042.03;5039050;28;20433;-53
2022/12/09 02:46:39;;;;;;;53.03;14.10;;;;;;;0.01;0.00;59042.03;5037674;28;20595;-55
2022/12/09 02:49:05;;;;;;;38.33;10.55;;;;;;;0.01;0.00;59042.03;5039189;28;20079;-53
2022/12/09 02:51:34;;;;;;;43.92;11.93;;;;;;;0.01;0.00;59042.03;5038273;28;20029;-53
2022/12/09 02:54:08;;;;;;;45.45;10.27;;;;;;;0.01;0.00;59042.03;5038813;28;20025;-55
2022/12/09 02:56:33;;;;;;;40.35;11.75;;;;;;;0.01;0.00;59042.03;5038379;28;20036;-55
2022/12/09 02:58:59;;;;;;;43.28;11.90;;;;;;;0.01;0.00;59042.03;5038344;28;20025;-55
2022/12/09 03:01:35;;;;;;;43.33;11.88;;;;;;;0.01;0.00;59042.03;5018331;28;20044;-55
2022/12/09 03:04:01;;;;;;;50.05;12.52;;;;;;;0.01;0.00;59042.03;5038620;28;20043;-54
2022/12/09 03:06:34;;;;;;;37.17;11.18;;;;;;;0.01;0.00;59042.03;5038351;28;20178;-55
2022/12/09 03:09:09;;;;;;;49.33;12.45;;;;;;;0.01;0.00;59042.03;5038090;28;20028;-55
2022/12/09 03:11:36;;;;;;;46.03;12.02;;;;;;;0.01;0.00;59042.03;5037760;28;20041;-53
2022/12/09 03:14:07;;;;;;;47.47;11.93;;;;;;;0.01;0.00;59042.03;5038430;28;20112;-53
2022/12/09 03:16:45;;;;;;;42.57;12.37;;;;;;;0.01;0.00;59042.03;5038178;28;20132;-56
2022/12/09 03:19:26;;;;;;;41.88;10.95;;;;;;;0.01;0.00;59042.03;5038187;28;20118;-53
2022/12/09 03:21:56;;;;;;;42.22;11.48;;;;;;;0.01;0.00;59042.03;5037731;28;20497;-54
2022/12/09 03:24:27;;;;;;;42.20;11.88;;;;;;;0.01;0.00;59042.03;5038328;28;20497;-56
2022/12/09 03:26:53;;;;;;;36.47;11.10;;;;;;;0.01;0.00;59042.03;5037936;28;20041;-53
2022/12/09 03:29:23;;;;;;;42.92;12.50;;;;;;;0.01;0.00;59042.03;5037841;28;21055;-53
2022/12/09 03:31:51;;;;;;;31.02;8.52;;;;;;;0.01;0.00;59042.03;5037616;28;20032;-54
2022/12/09 03:34:21;;;;;;;43.83;9.38;;;;;;;0.01;0.00;59042.03;5038574;28;20083;-55
2022/12/09 03:36:49;;;;;;;39.13;10.55;;;;;;;0.01;0.00;59042.03;5037422;28;20048;-55
2022/12/09 03:39:18;;;;;;;47.88;12.02;;;;;;;0.01;0.00;59042.03;5037933;28;20035;-53
2022/12/09 03:41:49;;;;;;;35.88;10.65;;;;;;;0.01;0.00;59042.03;5037311;28;20064;-54
2022/12/09 03:44:25;;;;;;;46.58;11.70;;;;;;;0.01;0.00;59042.03;5037940;28;20025;-54
2022/12/09 03:46:51;;;;;;;40.50;11.20;;;;;;;0.01;0.00;59042.03;5037011;28;20033;-54
2022/12/09 03:49:17;;;;;;;45.53;11.45;;;;;;;0.01;0.00;59042.03;5024134;28;20035;-53
2022/12/09 03:51:51;;;;;;;37.60;10.80;;;;;;;0.01;0.00;59042.03;5036793;28;20037;-53
2022/12/09 03:54:24;;;;;;;36.25;10.50;;;;;;;0.01;0.00;59042.03;5037526;28;20059;-53
2022/12/09 03:56:53;;;;;;;40.45;11.90;;;;;;;0.01;0.00;59042.03;5037194;28;20113;-53
2022/12/09 03:59:20;;;;;;;39.45;10.93;;;;;;;0.01;0.00;59042.03;5037494;28;20072;-53
2022/12/09 04:01:46;;;;;;;37.15;11.40;;;;;;;0.01;0.00;59042.03;5037101;28;20098;-54
2022/12/09 04:04:11;;;;;;;43.55;12.75;;;;;;;0.01;0.00;59042.03;5034243;28;20511;-54
2022/12/09 04:06:37;;;;;;;49.20;12.68;;;;;;;0.01;0.00;59042.03;5036824;28;20561;-54
2022/12/09 04:09:03;;;;;;;36.35;10.80;;;;;;;0.01;0.00;59042.03;5038007;28;20510;-54
2022/12/09 04:11:30;;;;;;;42.15;11.45;;;;;;;0.01;0.00;59042.03;5036933;28;20461;-54
2022/12/09 04:13:56;;;;;;;41.55;11.65;;;;;;;0.01;0.00;59042.03;5037891;28;20031;-54
2022/12/09 04:16:21;;;;;;;35.95;11.32;;;;;;;0.01;0.00;59042.03;5037323;28;20120;-53
2022/12/09 04:18:46;;;;;;;41.97;10.68;;;;;;;0.01;0.00;59042.03;5037214;28;20460;-53
2022/12/09 04:21:12;;;;;;;45.67;13.32;;;;;;;0.01;0.00;59042.03;5036881;28;20128;-54
2022/12/09 04:23:38;;;;;;;40.97;12.15;;;;;;;0.01;0.00;59042.03;5037236;28;20109;-55
2022/12/09 04:26:04;;;;;;;46.35;11.23;;;;;;;0.01;0.00;59042.03;5037049;28;20039;-53
2022/12/09 04:28:29;;;;;;;41.97;12.57;;;;;;;0.01;0.00;59042.03;5037644;28;20029;-53
2022/12/09 04:30:55;;;;;;;58.63;13.48;;;;;;;0.01;0.00;59042.03;5036032;28;20114;-53
2022/12/09 04:33:20;;;;;;;41.13;12.43;;;;;;;0.01;0.00;59042.03;5037376;28;20025;-53
2022/12/09 04:35:45;;;;;;;46.25;12.70;;;;;;;0.01;0.00;59042.03;5036563;28;20694;-54
2022/12/09 04:38:11;;;;;;;43.38;11.70;;;;;;;0.01;0.00;59042.03;5037294;28;20171;-52
2022/12/09 04:40:37;;;;;;;44.97;12.38;;;;;;;0.01;0.00;59042.03;5036820;28;20041;-54
2022/12/09 04:43:02;;;;;;;47.85;12.48;;;;;;;0.01;0.00;59042.03;5036984;28;20108;-54
2022/12/09 04:45:28;;;;;;;44.30;12.43;;;;;;;0.01;0.00;59042.03;5036709;28;20449;-53
2022/12/09 04:47:53;;;;;;;45.67;12.13;;;;;;;0.01;0.00;59042.03;5039311;28;20086;-53
2022/12/09 04:50:18;;;;;;;41.92;11.23;;;;;;;0.01;0.00;59042.03;5040214;28;20017;-56
2022/12/09 04:52:44;;;;;;;42.33;11.85;;;;;;;0.01;0.00;59042.03;5041182;28;20025;-53
2022/12/09 04:55:12;;;;;;;44.78;12.35;;;;;;;0.01;0.00;59042.03;5039905;28;20140;-54
2022/12/09 04:57:37;;;;;;;54.35;12.60;;;;;;;0.01;0.00;59042.03;5040892;28;20035;-53
2022/12/09 05:00:04;;;;;;;46.03;12.02;;;;;;;0.01;0.00;59042.03;5040883;28;20029;-53
2022/12/09 05:02:30;;;;;;;45.65;12.68;;;;;;;0.01;0.00;59042.03;5040237;28;20087;-54
2022/12/09 05:04:55;;;;;;;42.72;11.63;;;;;;;0.01;0.00;59042.03;5041333;28;20116;-54
2022/12/09 05:07:22;;;;;;;46.35;11.75;;;;;;;0.01;0.00;59042.03;5039715;28;20033;-53
2022/12/09 05:09:47;;;;;;;47.08;12.20;;;;;;;0.01;0.00;59042.03;5040678;28;20033;-54
2022/12/09 05:12:13;;;;;;;49.50;12.45;;;;;;;0.01;0.00;59042.03;5039299;28;20045;-56
2022/12/09 05:14:38;;;;;;;35.45;10.35;;;;;;;0.01;0.00;59042.03;5040504;28;20027;-54
2022/12/09 05:17:05;;;;;;;41.13;11.35;;;;;;;0.01;0.00;59042.03;5040033;28;20398;-55
2022/12/09 05:19:31;;;;;;;45.97;12.77;;;;;;;0.01;0.00;59042.03;5022858;28;20025;-54
2022/12/09 05:21:56;;;;;;;37.72;10.02;;;;;;;0.01;0.00;59042.03;5039980;28;20067;-54
2022/12/09 05:24:21;;;;;;;35.45;10.40;;;;;;;0.01;0.00;59042.03;5040425;28;20682;-54
2022/12/09 05:26:47;;;;;;;38.78;11.32;;;;;;;0.01;0.00;59042.03;5040169;28;20033;-54
2022/12/09 05:29:12;;;;;;;42.28;12.45;;;;;;;0.01;0.00;59042.03;5040481;28;20138;-54
2022/12/09 05:31:37;;;;;;;51.55;12.65;;;;;;;0.01;0.00;59042.03;5039508;28;20037;-55
2022/12/09 05:34:03;;;;;;;44.20;11.57;;;;;;;0.01;0.00;59042.03;5040210;28;20067;-54
2022/12/09 05:36:28;;;;;;;45.88;12.82;;;;;;;0.01;0.00;59042.03;5039748;28;20178;-54
2022/12/09 05:38:54;;;;;;;43.85;12.05;;;;;;;0.01;0.00;59042.03;5039956;28;20052;-55
2022/12/09 05:41:21;;;;;;;39.00;12.25;;;;;;;0.01;0.00;59042.03;5039569;28;20033;-56
2022/12/09 05:43:47;;;;;;;49.65;13.15;;;;;;;0.01;0.00;59042.03;5040245;28;20099;-55
2022/12/09 05:46:13;;;;;;;40.28;12.27;;;;;;;0.01;0.00;59042.03;5040040;28;20076;-54
2022/12/09 05:48:39;;;;;;;45.38;11.55;;;;;;;0.01;0.00;59042.03;5039902;28;20029;-54
2022/12/09 05:51:09;;;;;;;57.63;13.40;;;;;;;0.01;0.00;59042.03;5039406;28;20037;-56
2022/12/09 05:53:35;;;;;;;44.10;11.77;;;;;;;0.01;0.00;59042.03;5039759;28;20056;-54
2022/12/09 05:56:00;;;;;;;51.33;13.82;;;;;;;0.01;0.00;59042.03;5039690;28;20037;-57
2022/12/09 05:58:26;;;;;;;40.20;12.20;;;;;;;0.01;0.00;59042.03;5040101;28;20086;-57
2022/12/09 06:00:55;;;;;;;51.28;13.70;;;;;;;0.01;0.00;59042.03;5038419;28;20879;-54
2022/12/09 06:03:20;;;;;;;45.70;12.60;;;;;;;0.01;0.00;59042.03;5039645;28;20024;-53
2022/12/09 06:05:45;;;;;;;50.40;13.60;;;;;;;0.01;0.00;59042.03;5039574;28;20094;-55
2022/12/09 06:08:11;;;;;;;51.80;13.70;;;;;;;0.01;0.00;59042.03;5039349;28;20035;-54
2022/12/09 06:10:40;;;;;;;48.00;13.18;;;;;;;0.01;0.00;59042.03;5038957;28;20037;-55
2022/12/09 06:13:06;;;;;;;54.92;15.75;;;;;;;0.01;0.00;59042.03;5039574;28;20235;-56
2022/12/09 06:15:33;;;;;;;39.80;10.48;;;;;;;0.01;0.00;59042.03;5039539;28;20079;-56
2022/12/09 06:17:58;;;;;;;57.97;17.75;;;;;;;0.01;0.00;59042.03;5039397;28;20524;-57
2022/12/09 06:20:24;;;;;;;41.58;12.02;;;;;;;0.01;0.00;59042.03;5038882;28;20560;-56
2022/12/09 06:22:49;;;;;;;42.55;13.50;;;;;;;0.01;0.00;59042.03;5038878;28;20033;-56
2022/12/09 06:25:14;;;;;;;56.17;15.20;;;;;;;0.01;0.00;59042.03;5038524;28;20028;-56
2022/12/09 06:27:40;;;;;;;52.08;16.55;;;;;;;0.01;0.00;59042.03;5039681;28;20021;-54
2022/12/09 06:30:06;;;;;;;39.92;10.07;;;;;;;0.01;0.00;59042.03;5038705;28;20539;-54
2022/12/09 06:32:33;;;;;;;48.67;16.42;;;;;;;0.01;0.00;59042.03;5038847;28;20813;-54
2022/12/09 06:34:58;;;;;;;64.43;17.63;;;;;;;0.01;0.00;59042.03;5036448;28;20111;-55
2022/12/09 06:37:23;;;;;;;62.45;17.48;;;;;;;0.01;0.00;59042.03;5036223;28;20086;-54
2022/12/09 06:39:49;;;;;;;44.05;12.75;;;;;;;0.01;0.00;59042.03;5038224;28;20651;-52
2022/12/09 06:42:14;;;;;;;51.17;14.93;;;;;;;0.01;0.00;59042.03;5037864;28;20510;-54
2022/12/09 06:44:40;;;;;;;46.25;12.93;;;;;;;0.01;0.00;59042.03;5039026;28;20033;-53
2022/12/09 06:47:06;;;;;;;45.55;12.60;;;;;;;0.01;0.00;59042.03;5038575;28;20063;-56
2022/12/09 06:49:31;;;;;;;47.20;13.38;;;;;;;0.01;0.00;59042.03;5038748;28;20398;-56
2022/12/09 06:51:57;;;;;;;51.83;14.32;;;;;;;0.01;0.00;59042.03;5038273;28;20477;-56
2022/12/09 06:54:22;;;;;;;44.33;11.57;;;;;;;0.01;0.00;59042.03;5037168;28;20024;-56
2022/12/09 06:56:47;;;;;;;48.38;15.15;;;;;;;0.01;0.00;59042.03;5038062;28;20060;-54
2022/12/09 06:59:13;;;;;;;62.85;17.05;;;;;;;0.01;0.00;59042.03;5038811;28;20481;-54
2022/12/09 07:01:38;;;;;;;52.03;13.15;;;;;;;0.01;0.00;59042.03;5037878;28;20040;-53
2022/12/09 07:04:04;;;;;;;56.05;15.90;;;;;;;0.01;0.00;59042.03;5038482;28;20033;-53
2022/12/09 07:06:44;;;;;;;49.25;12.70;;;;;;;0.01;0.00;59042.03;5037675;28;20037;-54
2022/12/09 07:09:15;;;;;;;49.90;13.45;;;;;;;0.01;0.00;59042.03;5038134;28;20024;-52
2022/12/09 07:11:45;;;;;;;52.80;15.38;;;;;;;0.01;0.00;59042.03;5036496;28;20493;-53
2022/12/09 07:14:12;;;;;;;59.03;15.13;;;;;;;0.01;0.00;59042.03;5038349;28;20044;-52
2022/12/09 07:16:37;;;;;;;56.47;14.65;;;;;;;0.01;0.00;59042.03;5038629;28;20040;-53
2022/12/09 07:19:03;;;;;;;51.50;15.48;;;;;;;0.01;0.00;59042.03;5038254;28;20021;-56
2022/12/09 07:21:29;;;;;;;46.78;14.38;;;;;;;0.01;0.00;59042.03;5037703;28;20037;-55
2022/12/09 07:23:57;;;;;;;55.63;14.45;;;;;;;0.01;0.00;59042.03;5038093;28;20029;-52
2022/12/09 07:26:23;;;;;;;38.50;7.70;;;;;;;0.01;0.00;59042.03;5037575;28;20040;-56
2022/12/09 07:28:49;;;;;;;41.58;11.82;;;;;;;0.01;0.00;59042.03;5038169;28;20021;-53
2022/12/09 07:31:22;;;;;;;54.33;16.42;;;;;;;0.01;0.00;59042.03;5037222;28;20522;-54
2022/12/09 07:33:48;;;;;;;61.45;16.38;;;;;;;0.01;0.00;59042.03;5037886;28;20521;-54
2022/12/09 07:36:13;;;;;;;57.38;14.30;;;;;;;0.01;0.00;59042.03;5037645;28;20033;-54
2022/12/09 07:38:39;;;;;;;58.38;15.85;;;;;;;0.01;0.00;59042.03;5038356;28;20495;-54
2022/12/09 07:41:06;;;;;;;68.97;18.95;;;;;;;0.01;0.00;59042.03;5037122;28;20041;-55
2022/12/09 07:43:33;;;;;;;53.22;14.73;;;;;;;0.01;0.00;59042.03;5038496;28;20025;-55
2022/12/09 07:45:59;;;;;;;33.15;6.55;;;;;;;0.01;0.00;59042.03;5037442;28;20098;-54
2022/12/09 07:48:24;;;;;;;44.35;11.18;;;;;;;0.01;0.00;59042.03;5037590;28;20037;-53
2022/12/09 07:50:49;;;;;;;52.13;15.23;;;;;;;0.01;0.00;59042.03;5037394;28;20698;-53
2022/12/09 07:53:15;;;;;;;55.55;15.30;;;;;;;0.01;0.00;59042.03;5019628;28;20115;-54
2022/12/09 07:55:40;;;;;;;53.35;15.65;;;;;;;0.01;0.00;59042.03;5037272;28;20037;-52
2022/12/09 07:58:05;;;;;;;50.67;16.00;;;;;;;0.01;0.00;59042.03;5038122;28;20439;-52
2022/12/09 08:00:34;;;;;;;56.67;18.65;;;;;;;0.01;0.00;59042.03;5036800;28;20712;-54
2022/12/09 08:02:59;;;;;;;57.55;16.20;;;;;;;0.01;0.00;59042.03;5037115;28;20039;-52
2022/12/09 08:05:25;;;;;;;51.40;13.65;;;;;;;0.01;0.00;59042.03;5036578;28;20033;-52
2022/12/09 08:07:50;;;;;;;53.63;15.82;;;;;;;0.01;0.00;59042.03;5037938;28;20031;-52
2022/12/09 08:10:16;;;;;;;61.03;16.08;;;;;;;0.01;0.00;59042.03;5037044;28;20450;-53
2022/12/09 08:12:41;;;;;;;50.30;15.57;;;;;;;0.01;0.00;59042.03;5037628;28;20111;-53
2022/12/09 08:15:07;;;;;;;38.22;10.45;;;;;;;0.01;0.00;59042.03;5037803;28;20477;-55
2022/12/09 08:17:32;;;;;;;46.67;12.85;;;;;;;0.01;0.00;59042.03;5037447;28;20049;-55
2022/12/09 08:19:58;;;;;;;47.22;14.27;;;;;;;0.01;0.00;59042.03;5037591;28;20094;-56
2022/12/09 08:22:23;;;;;;;53.75;16.45;;;;;;;0.01;0.00;59042.03;5039512;28;20457;-54
2022/12/09 08:24:48;;;;;;;47.63;15.75;;;;;;;0.01;0.00;59042.03;5043723;28;20103;-54
2022/12/09 08:27:14;;;;;;;38.33;12.77;;;;;;;0.01;0.00;59042.03;5043648;28;20051;-53
2022/12/09 08:29:39;;;;;;;49.60;13.70;;;;;;;0.01;0.00;59042.03;5043875;28;20029;-54
2022/12/09 08:32:05;;;;;;;46.70;14.90;;;;;;;0.01;0.00;59042.03;5043092;28;20128;-55
2022/12/09 08:34:30;;;;;;;43.13;13.63;;;;;;;0.01;0.00;59042.03;5043733;28;20443;-55
2022/12/09 08:36:56;;;;;;;54.95;15.93;;;;;;;0.01;0.00;59042.03;5043041;28;20560;-53
2022/12/09 08:39:21;;;;;;;48.35;13.68;;;;;;;0.01;0.00;59042.03;5043742;28;20448;-53
2022/12/09 08:41:46;;;;;;;51.08;16.25;;;;;;;0.01;0.00;59042.03;5042667;28;20085;-56
2022/12/09 08:44:16;;;;;;;58.92;16.20;;;;;;;0.01;0.00;59042.03;5025418;28;20148;-53
2022/12/09 08:46:44;;;;;;;47.35;14.48;;;;;;;0.01;0.00;59042.03;5042722;28;20349;-52
2022/12/09 08:49:10;;;;;;;45.25;17.08;;;;;;;0.01;0.00;59042.03;5043157;28;20099;-55
2022/12/09 08:51:36;;;;;;;53.63;17.15;;;;;;;0.01;0.00;59042.03;5041595;28;20055;-54
2022/12/09 08:54:03;;;;;;;58.58;17.10;;;;;;;0.01;0.00;59042.03;5043404;28;20020;-53
2022/12/09 08:56:28;;;;;;;48.85;16.95;;;;;;;0.01;0.00;59042.03;5042966;28;20075;-53
2022/12/09 08:58:54;;;;;;;49.00;16.27;;;;;;;0.01;0.00;59042.03;5042886;28;20120;-54
2022/12/09 09:01:22;;;;;;;48.20;14.45;;;;;;;0.01;0.00;59042.03;5042615;28;20123;-52
2022/12/09 09:03:48;;;;;;;54.92;17.33;;;;;;;0.01;0.00;59042.03;5042843;28;20021;-56
2022/12/09 09:06:15;;;;;;;51.00;19.30;;;;;;;0.01;0.00;59042.03;5042928;28;20467;-53
2022/12/09 09:08:41;;;;;;;46.58;13.27;;;;;;;0.01;0.00;59042.03;5041371;28;20029;-56
2022/12/09 09:11:12;;;;;;;57.42;17.95;;;;;;;0.01;0.00;59042.03;5041783;28;20849;-52
2022/12/09 09:13:40;;;;;;;37.05;10.38;;;;;;;0.01;0.00;59042.03;5043509;28;20033;-54
2022/12/09 09:16:11;;;;;;;53.72;16.90;;;;;;;0.01;0.00;59042.03;5042675;28;20860;-53
2022/12/09 09:18:37;;;;;;;41.78;13.40;;;;;;;0.01;0.00;59042.03;5042673;28;20044;-55
2022/12/09 09:21:04;;;;;;;55.72;15.52;;;;;;;0.01;0.00;59042.03;5042335;28;20196;-54
2022/12/09 09:23:29;;;;;;;45.33;15.90;;;;;;;0.01;0.00;59042.03;5043391;28;20580;-52
2022/12/09 09:25:54;;;;;;;38.75;14.93;;;;;;;0.01;0.00;59042.03;5043006;28;20733;-53
2022/12/09 09:28:20;;;;;;;45.53;15.00;;;;;;;0.01;0.00;59042.03;5043605;28;20430;-53
2022/12/09 09:30:49;;;;;;;46.35;13.45;;;;;;;0.01;0.00;59042.03;5042890;28;20064;-53
2022/12/09 09:33:15;;;;;;;51.92;15.63;;;;;;;0.01;0.00;59042.03;5042084;28;20291;-55
2022/12/09 09:35:40;;;;;;;48.80;14.68;;;;;;;0.01;0.00;59042.03;5039252;28;20033;-53
2022/12/09 09:38:05;;;;;;;42.28;12.75;;;;;;;0.01;0.00;59042.03;5040250;28;20055;-52
2022/12/09 09:40:32;;;;;;;41.22;12.25;;;;;;;0.01;0.00;59042.03;5040042;28;20036;-53
2022/12/09 09:42:57;;;;;;;48.92;14.30;;;;;;;0.01;0.00;59042.03;5039783;28;20029;-53
2022/12/09 09:45:23;;;;;;;41.50;12.60;;;;;;;0.01;0.00;59042.03;5039632;28;20017;-53
2022/12/09 09:47:57;;;;;;;43.03;13.45;;;;;;;0.01;0.00;59042.03;5040537;28;20057;-52
2022/12/09 09:50:36;;;;;;;46.25;12.13;;;;;;;0.01;0.00;59042.03;5039293;28;20068;-53
2022/12/09 09:53:14;;;;;;;38.85;11.90;;;;;;;0.01;0.00;59042.03;5039987;28;20039;-52
2022/12/09 09:55:46;;;;;;;43.85;13.55;;;;;;;0.01;0.00;59042.03;5039264;28;20141;-55
2022/12/09 09:58:28;;;;;;;39.13;12.65;;;;;;;0.01;0.00;59042.03;5039882;28;20025;-53
2022/12/09 10:01:02;;;;;;;48.90;13.93;;;;;;;0.01;0.00;59042.03;5039340;28;20064;-56
2022/12/09 10:03:27;;;;;;;44.00;12.57;;;;;;;0.01;0.00;59042.03;5039581;28;20043;-55
2022/12/09 10:05:57;;;;;;;35.95;11.43;;;;;;;0.01;0.00;59042.03;5039387;28;20052;-53
2022/12/09 10:08:47;;;;;;;37.67;11.38;;;;;;;0.01;0.00;59042.03;5039854;28;20028;-54
2022/12/09 10:11:36;;;;;;;41.92;12.60;;;;;;;0.01;0.00;59042.03;5038389;28;20037;-55
2022/12/09 10:14:21;;;;;;;35.85;10.05;;;;;;;0.01;0.00;59042.03;5039988;28;20029;-53
2022/12/09 10:17:11;;;;;;;40.88;11.88;;;;;;;0.01;0.00;59042.03;5038890;28;20064;-55
2022/12/09 10:19:44;;;;;;;32.53;9.73;;;;;;;0.01;0.00;59042.03;5038498;28;20039;-53
2022/12/09 10:22:16;;;;;;;33.40;10.25;;;;;;;0.01;0.00;59042.03;5038180;28;20095;-56
2022/12/09 10:24:48;;;;;;;44.17;11.38;;;;;;;0.01;0.00;59042.03;5039499;28;20083;-53
2022/12/09 10:27:26;;;;;;;36.72;10.30;;;;;;;0.01;0.00;59042.03;5039019;28;20033;-53
2022/12/09 10:30:06;;;;;;;34.97;10.00;;;;;;;0.01;0.00;59042.03;5039683;28;20100;-54
2022/12/09 10:32:34;;;;;;;35.67;9.95;;;;;;;0.01;0.00;59042.03;5038192;28;20110;-53
2022/12/09 10:35:00;;;;;;;30.10;7.07;;;;;;;0.01;0.00;59042.03;5038689;28;20442;-54
2022/12/09 10:37:25;;;;;;;39.97;10.45;;;;;;;0.01;0.00;59042.03;5038414;28;20501;-53
2022/12/09 10:40:06;;;;;;;29.65;8.55;;;;;;;0.01;0.00;59042.03;5038669;28;20437;-53
2022/12/09 10:45:20;;;;;;;35.22;9.40;;;;;;;0.01;0.00;59042.03;5038304;28;20055;-54
2022/12/09 10:47:51;;;;;;;31.58;8.95;;;;;;;0.01;0.00;59042.03;5039002;28;20529;-54
2022/12/09 10:50:34;;;;;;;30.25;8.23;;;;;;;0.01;0.00;59042.03;5038474;28;20107;-54
2022/12/09 10:53:06;;;;;;;32.13;9.30;;;;;;;0.01;0.00;59042.03;5038543;28;20055;-54
2022/12/09 10:55:42;;;;;;;24.48;8.40;;;;;;;0.01;0.00;59042.03;5038423;28;20040;-56
2022/12/09 10:58:25;;;;;;;27.75;6.47;;;;;;;0.01;0.00;59042.03;5038481;28;20025;-55
2022/12/09 11:00:57;;;;;;;28.25;6.50;;;;;;;0.01;0.00;59042.03;5037525;28;20052;-56
2022/12/09 11:03:49;;;;;;;31.30;9.43;;;;;;;0.01;0.00;59042.03;5038317;28;20032;-55
2022/12/09 11:06:14;;;;;;;27.80;6.88;;;;;;;0.01;0.00;59042.03;5038237;28;20033;-54
2022/12/09 11:08:40;;;;;;;27.52;8.63;;;;;;;0.01;0.00;59042.03;5038974;28;20039;-54
2022/12/09 11:11:06;;;;;;;21.33;6.00;;;;;;;0.01;0.00;59042.03;5038166;28;20036;-54
2022/12/09 11:13:41;;;;;;;23.48;7.65;;;;;;;0.01;0.00;59042.03;5038468;28;20055;-53
2022/12/09 11:16:08;;;;;;;25.08;8.18;;;;;;;0.01;0.00;59042.03;5037975;28;20067;-54
2022/12/09 11:18:41;;;;;;;30.15;9.35;;;;;;;0.01;0.00;59042.03;5038381;28;20021;-54
2022/12/09 11:21:26;;;;;;;29.55;9.35;;;;;;;0.01;0.00;59042.03;5037596;28;20569;-54
2022/12/09 11:23:52;;;;;;;28.02;8.35;;;;;;;0.01;0.00;59042.03;5038501;28;20117;-54
2022/12/09 11:26:24;;;;;;;25.13;7.97;;;;;;;0.01;0.00;59042.03;5038217;28;20048;-56
2022/12/09 11:29:14;;;;;;;26.17;8.47;;;;;;;0.01;0.00;59042.03;5038716;28;20037;-53
2022/12/09 11:31:40;;;;;;;27.35;7.70;;;;;;;0.01;0.00;59042.03;5032642;28;20321;-53
2022/12/09 11:34:24;;;;;;;28.20;9.05;;;;;;;0.01;0.00;59042.03;5038311;28;20036;-53
2022/12/09 11:36:56;;;;;;;28.88;9.18;;;;;;;0.01;0.00;59042.03;5037840;28;20040;-54
2022/12/09 11:39:33;;;;;;;31.02;7.72;;;;;;;0.01;0.00;59042.03;5038024;28;20037;-53
2022/12/09 11:42:19;;;;;;;27.98;7.90;;;;;;;0.01;0.00;59042.03;5036912;28;20044;-54